sensor_id;sensor_type;location;lat;lon;timestamp;P1;durP1;ratioP1;P2;durP2;ratioP2
44116;SDS011;29781;49.480;8.512;2022-07-30T00:02:15;10.60;;;7.93;;
44116;SDS011;29781;49.480;8.512;2022-07-30T00:04:41;13.43;;;8.98;;
44116;SDS011;29781;49.480;8.512;2022-07-30T00:07:07;13.80;;;8.32;;
44116;SDS011;29781;49.480;8.512;2022-07-30T00:09:33;10.13;;;8.25;;
44116;SDS011;29781;49.480;8.512;2022-07-30T00:11:59;13.82;;;8.10;;
44116;SDS011;29781;49.480;8.512;2022-07-30T00:14:24;15.90;;;8.57;;
44116;SDS011;29781;49.480;8.512;2022-07-30T00:16:50;11.98;;;7.97;;
44116;SDS011;29781;49.480;8.512;2022-07-30T00:19:17;13.15;;;7.43;;
44116;SDS011;29781;49.480;8.512;2022-07-30T00:21:43;10.93;;;7.20;;
44116;SDS011;29781;49.480;8.512;2022-07-30T00:24:09;11.82;;;7.13;;
44116;SDS011;29781;49.480;8.512;2022-07-30T00:26:34;14.82;;;7.78;;
44116;SDS011;29781;49.480;8.512;2022-07-30T00:29:00;12.88;;;7.55;;
44116;SDS011;29781;49.480;8.512;2022-07-30T00:31:26;9.23;;;6.95;;
44116;SDS011;29781;49.480;8.512;2022-07-30T00:33:52;10.20;;;7.40;;
44116;SDS011;29781;49.480;8.512;2022-07-30T00:36:17;9.98;;;7.65;;
44116;SDS011;29781;49.480;8.512;2022-07-30T00:38:43;11.27;;;7.72;;
44116;SDS011;29781;49.480;8.512;2022-07-30T00:41:08;10.63;;;7.10;;
44116;SDS011;29781;49.480;8.512;2022-07-30T00:43:34;10.43;;;6.68;;
44116;SDS011;29781;49.480;8.512;2022-07-30T00:46:00;9.02;;;6.15;;
44116;SDS011;29781;49.480;8.512;2022-07-30T00:48:25;10.70;;;6.68;;
44116;SDS011;29781;49.480;8.512;2022-07-30T00:50:51;9.90;;;6.28;;
44116;SDS011;29781;49.480;8.512;2022-07-30T00:53:17;9.95;;;6.60;;
44116;SDS011;29781;49.480;8.512;2022-07-30T00:55:42;8.48;;;6.60;;
44116;SDS011;29781;49.480;8.512;2022-07-30T00:58:08;10.50;;;6.68;;
44116;SDS011;29781;49.480;8.512;2022-07-30T01:00:34;12.30;;;7.28;;
44116;SDS011;29781;49.480;8.512;2022-07-30T01:02:59;8.05;;;5.80;;
44116;SDS011;29781;49.480;8.512;2022-07-30T01:05:26;13.23;;;7.13;;
44116;SDS011;29781;49.480;8.512;2022-07-30T01:07:52;9.80;;;6.53;;
44116;SDS011;29781;49.480;8.512;2022-07-30T01:10:17;9.32;;;6.47;;
44116;SDS011;29781;49.480;8.512;2022-07-30T01:12:43;7.70;;;6.85;;
44116;SDS011;29781;49.480;8.512;2022-07-30T01:15:10;10.30;;;7.15;;
44116;SDS011;29781;49.480;8.512;2022-07-30T01:17:36;13.88;;;7.90;;
44116;SDS011;29781;49.480;8.512;2022-07-30T01:20:07;11.10;;;7.50;;
44116;SDS011;29781;49.480;8.512;2022-07-30T01:25:19;7.05;;;6.43;;
44116;SDS011;29781;49.480;8.512;2022-07-30T01:27:57;12.55;;;7.03;;
44116;SDS011;29781;49.480;8.512;2022-07-30T01:30:29;8.60;;;6.60;;
44116;SDS011;29781;49.480;8.512;2022-07-30T01:32:57;10.02;;;6.55;;
44116;SDS011;29781;49.480;8.512;2022-07-30T01:35:25;8.25;;;6.35;;
44116;SDS011;29781;49.480;8.512;2022-07-30T01:37:53;7.75;;;6.10;;
44116;SDS011;29781;49.480;8.512;2022-07-30T01:40:21;7.47;;;6.45;;
44116;SDS011;29781;49.480;8.512;2022-07-30T01:42:50;6.18;;;5.57;;
44116;SDS011;29781;49.480;8.512;2022-07-30T01:45:25;9.57;;;6.03;;
44116;SDS011;29781;49.480;8.512;2022-07-30T01:47:53;6.72;;;6.05;;
44116;SDS011;29781;49.480;8.512;2022-07-30T01:50:21;6.40;;;5.53;;
44116;SDS011;29781;49.480;8.512;2022-07-30T01:52:47;7.93;;;6.10;;
44116;SDS011;29781;49.480;8.512;2022-07-30T01:55:17;8.40;;;5.13;;
44116;SDS011;29781;49.480;8.512;2022-07-30T01:57:48;7.50;;;5.15;;
44116;SDS011;29781;49.480;8.512;2022-07-30T02:00:16;5.18;;;4.75;;
44116;SDS011;29781;49.480;8.512;2022-07-30T02:02:43;7.30;;;5.22;;
44116;SDS011;29781;49.480;8.512;2022-07-30T02:05:09;6.10;;;5.50;;
44116;SDS011;29781;49.480;8.512;2022-07-30T02:07:35;6.40;;;5.35;;
44116;SDS011;29781;49.480;8.512;2022-07-30T02:10:16;5.65;;;4.97;;
44116;SDS011;29781;49.480;8.512;2022-07-30T02:12:49;6.68;;;5.07;;
44116;SDS011;29781;49.480;8.512;2022-07-30T02:17:54;6.97;;;5.55;;
44116;SDS011;29781;49.480;8.512;2022-07-30T02:20:26;7.95;;;6.15;;
44116;SDS011;29781;49.480;8.512;2022-07-30T02:22:54;9.60;;;5.60;;
44116;SDS011;29781;49.480;8.512;2022-07-30T02:25:24;10.73;;;5.35;;
44116;SDS011;29781;49.480;8.512;2022-07-30T02:27:52;9.20;;;6.43;;
44116;SDS011;29781;49.480;8.512;2022-07-30T02:30:22;11.88;;;5.38;;
44116;SDS011;29781;49.480;8.512;2022-07-30T02:32:51;11.67;;;5.60;;
44116;SDS011;29781;49.480;8.512;2022-07-30T02:35:23;7.43;;;5.50;;
44116;SDS011;29781;49.480;8.512;2022-07-30T02:37:51;7.93;;;5.50;;
44116;SDS011;29781;49.480;8.512;2022-07-30T02:40:18;10.00;;;6.03;;
44116;SDS011;29781;49.480;8.512;2022-07-30T02:42:46;6.30;;;5.55;;
44116;SDS011;29781;49.480;8.512;2022-07-30T02:45:16;8.32;;;5.70;;
44116;SDS011;29781;49.480;8.512;2022-07-30T02:47:43;14.38;;;5.20;;
44116;SDS011;29781;49.480;8.512;2022-07-30T02:50:11;8.63;;;5.15;;
44116;SDS011;29781;49.480;8.512;2022-07-30T02:52:38;6.45;;;4.93;;
44116;SDS011;29781;49.480;8.512;2022-07-30T02:55:06;6.15;;;4.72;;
44116;SDS011;29781;49.480;8.512;2022-07-30T02:57:33;7.82;;;5.15;;
44116;SDS011;29781;49.480;8.512;2022-07-30T03:00:03;7.50;;;4.70;;
44116;SDS011;29781;49.480;8.512;2022-07-30T03:02:30;12.32;;;5.07;;
44116;SDS011;29781;49.480;8.512;2022-07-30T03:04:57;5.70;;;4.35;;
44116;SDS011;29781;49.480;8.512;2022-07-30T03:07:25;6.88;;;4.45;;
44116;SDS011;29781;49.480;8.512;2022-07-30T03:09:53;5.47;;;4.15;;
44116;SDS011;29781;49.480;8.512;2022-07-30T03:12:21;4.72;;;4.20;;
44116;SDS011;29781;49.480;8.512;2022-07-30T03:14:48;6.22;;;4.20;;
44116;SDS011;29781;49.480;8.512;2022-07-30T03:17:15;5.80;;;4.70;;
44116;SDS011;29781;49.480;8.512;2022-07-30T03:19:42;10.15;;;4.75;;
44116;SDS011;29781;49.480;8.512;2022-07-30T03:22:10;7.00;;;4.68;;
44116;SDS011;29781;49.480;8.512;2022-07-30T03:24:41;9.27;;;5.00;;
44116;SDS011;29781;49.480;8.512;2022-07-30T03:27:09;6.32;;;4.93;;
44116;SDS011;29781;49.480;8.512;2022-07-30T03:29:37;5.90;;;5.00;;
44116;SDS011;29781;49.480;8.512;2022-07-30T03:32:04;7.40;;;5.78;;
44116;SDS011;29781;49.480;8.512;2022-07-30T03:34:31;7.95;;;5.10;;
44116;SDS011;29781;49.480;8.512;2022-07-30T03:36:58;8.15;;;4.78;;
44116;SDS011;29781;49.480;8.512;2022-07-30T03:39:27;6.13;;;4.80;;
44116;SDS011;29781;49.480;8.512;2022-07-30T03:41:53;9.43;;;5.38;;
44116;SDS011;29781;49.480;8.512;2022-07-30T03:44:20;7.32;;;5.20;;
44116;SDS011;29781;49.480;8.512;2022-07-30T03:46:47;7.03;;;5.22;;
44116;SDS011;29781;49.480;8.512;2022-07-30T03:49:16;6.15;;;5.07;;
44116;SDS011;29781;49.480;8.512;2022-07-30T03:51:42;9.93;;;5.28;;
44116;SDS011;29781;49.480;8.512;2022-07-30T03:54:09;7.32;;;5.00;;
44116;SDS011;29781;49.480;8.512;2022-07-30T03:56:35;8.43;;;5.07;;
44116;SDS011;29781;49.480;8.512;2022-07-30T03:59:02;7.50;;;4.88;;
44116;SDS011;29781;49.480;8.512;2022-07-30T04:01:28;11.00;;;5.60;;
44116;SDS011;29781;49.480;8.512;2022-07-30T04:03:54;5.93;;;4.80;;
44116;SDS011;29781;49.480;8.512;2022-07-30T04:06:27;9.70;;;5.30;;
44116;SDS011;29781;49.480;8.512;2022-07-30T04:08:52;5.95;;;4.53;;
44116;SDS011;29781;49.480;8.512;2022-07-30T04:11:18;6.40;;;5.40;;
44116;SDS011;29781;49.480;8.512;2022-07-30T04:13:44;7.30;;;4.80;;
44116;SDS011;29781;49.480;8.512;2022-07-30T04:16:11;8.05;;;5.20;;
44116;SDS011;29781;49.480;8.512;2022-07-30T04:18:41;6.95;;;5.10;;
44116;SDS011;29781;49.480;8.512;2022-07-30T04:21:13;6.05;;;4.80;;
44116;SDS011;29781;49.480;8.512;2022-07-30T04:23:40;5.93;;;4.78;;
44116;SDS011;29781;49.480;8.512;2022-07-30T04:26:07;7.80;;;4.82;;
44116;SDS011;29781;49.480;8.512;2022-07-30T04:28:33;10.40;;;5.38;;
44116;SDS011;29781;49.480;8.512;2022-07-30T04:31:00;7.28;;;4.85;;
44116;SDS011;29781;49.480;8.512;2022-07-30T04:33:26;7.15;;;5.05;;
44116;SDS011;29781;49.480;8.512;2022-07-30T04:35:52;8.77;;;4.75;;
44116;SDS011;29781;49.480;8.512;2022-07-30T04:38:18;6.28;;;5.13;;
44116;SDS011;29781;49.480;8.512;2022-07-30T04:40:44;10.15;;;5.13;;
44116;SDS011;29781;49.480;8.512;2022-07-30T04:43:10;5.82;;;4.60;;
44116;SDS011;29781;49.480;8.512;2022-07-30T04:45:35;6.22;;;4.95;;
44116;SDS011;29781;49.480;8.512;2022-07-30T04:48:03;5.90;;;4.40;;
44116;SDS011;29781;49.480;8.512;2022-07-30T04:50:29;5.80;;;4.65;;
44116;SDS011;29781;49.480;8.512;2022-07-30T04:52:58;7.65;;;5.10;;
44116;SDS011;29781;49.480;8.512;2022-07-30T04:55:25;9.70;;;5.43;;
44116;SDS011;29781;49.480;8.512;2022-07-30T04:57:51;9.85;;;5.28;;
44116;SDS011;29781;49.480;8.512;2022-07-30T05:00:17;6.45;;;5.20;;
44116;SDS011;29781;49.480;8.512;2022-07-30T05:02:43;5.82;;;5.03;;
44116;SDS011;29781;49.480;8.512;2022-07-30T05:05:11;6.20;;;5.57;;
44116;SDS011;29781;49.480;8.512;2022-07-30T05:07:40;8.55;;;5.60;;
44116;SDS011;29781;49.480;8.512;2022-07-30T05:10:06;6.97;;;5.15;;
44116;SDS011;29781;49.480;8.512;2022-07-30T05:12:35;7.03;;;5.68;;
44116;SDS011;29781;49.480;8.512;2022-07-30T05:15:05;8.65;;;5.63;;
44116;SDS011;29781;49.480;8.512;2022-07-30T05:19:58;8.23;;;5.95;;
44116;SDS011;29781;49.480;8.512;2022-07-30T05:22:24;9.95;;;6.50;;
44116;SDS011;29781;49.480;8.512;2022-07-30T05:24:51;9.13;;;6.40;;
44116;SDS011;29781;49.480;8.512;2022-07-30T05:27:17;10.00;;;6.88;;
44116;SDS011;29781;49.480;8.512;2022-07-30T05:29:44;8.60;;;6.25;;
44116;SDS011;29781;49.480;8.512;2022-07-30T05:32:11;9.82;;;5.53;;
44116;SDS011;29781;49.480;8.512;2022-07-30T05:34:36;6.25;;;5.65;;
44116;SDS011;29781;49.480;8.512;2022-07-30T05:37:02;8.45;;;6.00;;
44116;SDS011;29781;49.480;8.512;2022-07-30T05:39:28;7.32;;;5.75;;
44116;SDS011;29781;49.480;8.512;2022-07-30T05:41:53;10.38;;;6.97;;
44116;SDS011;29781;49.480;8.512;2022-07-30T05:44:19;8.55;;;5.70;;
44116;SDS011;29781;49.480;8.512;2022-07-30T05:46:45;8.35;;;6.60;;
44116;SDS011;29781;49.480;8.512;2022-07-30T05:49:11;14.27;;;7.18;;
44116;SDS011;29781;49.480;8.512;2022-07-30T05:51:36;8.88;;;6.45;;
44116;SDS011;29781;49.480;8.512;2022-07-30T05:54:03;8.63;;;6.32;;
44116;SDS011;29781;49.480;8.512;2022-07-30T05:56:29;11.48;;;7.60;;
44116;SDS011;29781;49.480;8.512;2022-07-30T05:58:54;9.68;;;7.28;;
44116;SDS011;29781;49.480;8.512;2022-07-30T06:01:20;10.45;;;6.30;;
44116;SDS011;29781;49.480;8.512;2022-07-30T06:03:46;8.43;;;7.13;;
44116;SDS011;29781;49.480;8.512;2022-07-30T06:06:11;10.73;;;6.68;;
44116;SDS011;29781;49.480;8.512;2022-07-30T06:08:37;9.13;;;6.97;;
44116;SDS011;29781;49.480;8.512;2022-07-30T06:11:03;10.25;;;7.00;;
44116;SDS011;29781;49.480;8.512;2022-07-30T06:13:29;12.13;;;6.55;;
44116;SDS011;29781;49.480;8.512;2022-07-30T06:15:54;8.65;;;6.68;;
44116;SDS011;29781;49.480;8.512;2022-07-30T06:18:20;10.27;;;6.13;;
44116;SDS011;29781;49.480;8.512;2022-07-30T06:20:46;6.75;;;5.82;;
44116;SDS011;29781;49.480;8.512;2022-07-30T06:23:15;9.63;;;6.53;;
44116;SDS011;29781;49.480;8.512;2022-07-30T06:25:41;8.05;;;6.53;;
44116;SDS011;29781;49.480;8.512;2022-07-30T06:28:06;9.45;;;6.20;;
44116;SDS011;29781;49.480;8.512;2022-07-30T06:30:32;11.40;;;7.18;;
44116;SDS011;29781;49.480;8.512;2022-07-30T06:32:57;11.98;;;6.10;;
44116;SDS011;29781;49.480;8.512;2022-07-30T06:35:23;13.40;;;6.25;;
44116;SDS011;29781;49.480;8.512;2022-07-30T06:37:49;6.10;;;5.50;;
44116;SDS011;29781;49.480;8.512;2022-07-30T06:40:15;10.40;;;6.30;;
44116;SDS011;29781;49.480;8.512;2022-07-30T06:42:41;6.35;;;5.50;;
44116;SDS011;29781;49.480;8.512;2022-07-30T06:45:06;14.48;;;6.88;;
44116;SDS011;29781;49.480;8.512;2022-07-30T06:47:32;9.07;;;6.63;;
44116;SDS011;29781;49.480;8.512;2022-07-30T06:49:59;8.65;;;7.13;;
44116;SDS011;29781;49.480;8.512;2022-07-30T06:52:26;11.52;;;7.80;;
44116;SDS011;29781;49.480;8.512;2022-07-30T06:54:52;8.45;;;6.97;;
44116;SDS011;29781;49.480;8.512;2022-07-30T06:57:18;8.15;;;6.22;;
44116;SDS011;29781;49.480;8.512;2022-07-30T06:59:43;9.63;;;6.63;;
44116;SDS011;29781;49.480;8.512;2022-07-30T07:02:09;10.73;;;8.25;;
44116;SDS011;29781;49.480;8.512;2022-07-30T07:04:35;12.48;;;7.30;;
44116;SDS011;29781;49.480;8.512;2022-07-30T07:07:01;9.05;;;7.50;;
44116;SDS011;29781;49.480;8.512;2022-07-30T07:09:27;12.73;;;7.70;;
44116;SDS011;29781;49.480;8.512;2022-07-30T07:11:52;10.32;;;7.60;;
44116;SDS011;29781;49.480;8.512;2022-07-30T07:14:18;13.88;;;8.30;;
44116;SDS011;29781;49.480;8.512;2022-07-30T07:16:44;12.35;;;8.50;;
44116;SDS011;29781;49.480;8.512;2022-07-30T07:19:09;14.82;;;8.23;;
44116;SDS011;29781;49.480;8.512;2022-07-30T07:21:35;19.55;;;8.63;;
44116;SDS011;29781;49.480;8.512;2022-07-30T07:24:00;10.48;;;7.95;;
44116;SDS011;29781;49.480;8.512;2022-07-30T07:26:27;10.77;;;7.97;;
44116;SDS011;29781;49.480;8.512;2022-07-30T07:28:54;12.52;;;8.48;;
44116;SDS011;29781;49.480;8.512;2022-07-30T07:31:20;11.07;;;8.93;;
44116;SDS011;29781;49.480;8.512;2022-07-30T07:33:46;13.77;;;9.05;;
44116;SDS011;29781;49.480;8.512;2022-07-30T07:36:13;12.65;;;8.98;;
44116;SDS011;29781;49.480;8.512;2022-07-30T07:38:39;12.80;;;8.38;;
44116;SDS011;29781;49.480;8.512;2022-07-30T07:41:04;12.82;;;9.57;;
44116;SDS011;29781;49.480;8.512;2022-07-30T07:43:30;14.80;;;8.98;;
44116;SDS011;29781;49.480;8.512;2022-07-30T07:45:56;11.60;;;7.70;;
44116;SDS011;29781;49.480;8.512;2022-07-30T07:48:22;12.57;;;9.32;;
44116;SDS011;29781;49.480;8.512;2022-07-30T07:50:48;11.13;;;8.25;;
44116;SDS011;29781;49.480;8.512;2022-07-30T07:53:14;13.48;;;8.43;;
44116;SDS011;29781;49.480;8.512;2022-07-30T07:55:39;14.63;;;8.75;;
44116;SDS011;29781;49.480;8.512;2022-07-30T07:58:05;16.15;;;8.75;;
44116;SDS011;29781;49.480;8.512;2022-07-30T08:00:30;14.23;;;9.23;;
44116;SDS011;29781;49.480;8.512;2022-07-30T08:02:56;14.73;;;8.27;;
44116;SDS011;29781;49.480;8.512;2022-07-30T08:05:22;18.38;;;7.47;;
44116;SDS011;29781;49.480;8.512;2022-07-30T08:07:48;10.32;;;7.63;;
44116;SDS011;29781;49.480;8.512;2022-07-30T08:10:14;11.45;;;7.07;;
44116;SDS011;29781;49.480;8.512;2022-07-30T08:12:40;18.80;;;8.07;;
44116;SDS011;29781;49.480;8.512;2022-07-30T08:15:06;12.48;;;8.30;;
44116;SDS011;29781;49.480;8.512;2022-07-30T08:17:38;15.05;;;8.27;;
44116;SDS011;29781;49.480;8.512;2022-07-30T08:20:10;12.32;;;8.30;;
44116;SDS011;29781;49.480;8.512;2022-07-30T08:22:37;17.67;;;9.57;;
44116;SDS011;29781;49.480;8.512;2022-07-30T08:25:03;12.75;;;9.45;;
44116;SDS011;29781;49.480;8.512;2022-07-30T08:27:29;12.65;;;9.25;;
44116;SDS011;29781;49.480;8.512;2022-07-30T08:29:55;14.13;;;9.00;;
44116;SDS011;29781;49.480;8.512;2022-07-30T08:32:21;11.88;;;7.88;;
44116;SDS011;29781;49.480;8.512;2022-07-30T08:34:46;10.15;;;8.38;;
44116;SDS011;29781;49.480;8.512;2022-07-30T08:37:12;11.00;;;8.18;;
44116;SDS011;29781;49.480;8.512;2022-07-30T08:39:38;13.43;;;7.40;;
44116;SDS011;29781;49.480;8.512;2022-07-30T08:42:04;14.68;;;6.78;;
44116;SDS011;29781;49.480;8.512;2022-07-30T08:44:29;9.60;;;6.88;;
44116;SDS011;29781;49.480;8.512;2022-07-30T08:46:57;12.15;;;5.90;;
44116;SDS011;29781;49.480;8.512;2022-07-30T08:49:24;9.88;;;5.60;;
44116;SDS011;29781;49.480;8.512;2022-07-30T08:51:50;9.52;;;6.20;;
44116;SDS011;29781;49.480;8.512;2022-07-30T08:54:17;9.38;;;5.85;;
44116;SDS011;29781;49.480;8.512;2022-07-30T08:56:43;14.60;;;5.15;;
44116;SDS011;29781;49.480;8.512;2022-07-30T08:59:09;6.13;;;3.97;;
44116;SDS011;29781;49.480;8.512;2022-07-30T09:01:35;4.53;;;3.80;;
44116;SDS011;29781;49.480;8.512;2022-07-30T09:04:01;7.00;;;4.28;;
44116;SDS011;29781;49.480;8.512;2022-07-30T09:06:27;7.35;;;3.63;;
44116;SDS011;29781;49.480;8.512;2022-07-30T09:08:53;8.73;;;4.32;;
44116;SDS011;29781;49.480;8.512;2022-07-30T09:11:19;6.35;;;4.60;;
44116;SDS011;29781;49.480;8.512;2022-07-30T09:13:45;7.22;;;4.03;;
44116;SDS011;29781;49.480;8.512;2022-07-30T09:16:21;6.88;;;3.50;;
44116;SDS011;29781;49.480;8.512;2022-07-30T09:18:49;11.50;;;4.20;;
44116;SDS011;29781;49.480;8.512;2022-07-30T09:23:58;6.63;;;3.60;;
44116;SDS011;29781;49.480;8.512;2022-07-30T09:26:26;6.80;;;4.13;;
44116;SDS011;29781;49.480;8.512;2022-07-30T09:28:53;4.93;;;3.60;;
44116;SDS011;29781;49.480;8.512;2022-07-30T09:31:19;4.50;;;3.25;;
44116;SDS011;29781;49.480;8.512;2022-07-30T09:33:46;9.82;;;4.10;;
44116;SDS011;29781;49.480;8.512;2022-07-30T09:36:13;8.40;;;4.32;;
44116;SDS011;29781;49.480;8.512;2022-07-30T09:38:43;4.28;;;3.17;;
44116;SDS011;29781;49.480;8.512;2022-07-30T09:41:13;8.52;;;4.05;;
44116;SDS011;29781;49.480;8.512;2022-07-30T09:46:10;7.45;;;4.10;;
44116;SDS011;29781;49.480;8.512;2022-07-30T09:48:36;9.50;;;3.80;;
44116;SDS011;29781;49.480;8.512;2022-07-30T09:51:01;4.68;;;3.78;;
44116;SDS011;29781;49.480;8.512;2022-07-30T09:53:27;6.28;;;4.50;;
44116;SDS011;29781;49.480;8.512;2022-07-30T09:55:53;11.77;;;3.72;;
44116;SDS011;29781;49.480;8.512;2022-07-30T09:58:20;6.25;;;3.63;;
44116;SDS011;29781;49.480;8.512;2022-07-30T10:00:46;6.18;;;3.63;;
44116;SDS011;29781;49.480;8.512;2022-07-30T10:03:19;6.28;;;3.67;;
44116;SDS011;29781;49.480;8.512;2022-07-30T10:05:55;11.70;;;4.05;;
44116;SDS011;29781;49.480;8.512;2022-07-30T10:11:12;7.07;;;3.55;;
44116;SDS011;29781;49.480;8.512;2022-07-30T10:13:43;4.35;;;3.33;;
44116;SDS011;29781;49.480;8.512;2022-07-30T10:16:11;5.88;;;3.22;;
44116;SDS011;29781;49.480;8.512;2022-07-30T10:18:37;9.75;;;3.20;;
44116;SDS011;29781;49.480;8.512;2022-07-30T10:21:06;6.72;;;3.30;;
44116;SDS011;29781;49.480;8.512;2022-07-30T10:23:33;5.93;;;3.20;;
44116;SDS011;29781;49.480;8.512;2022-07-30T10:25:59;6.53;;;3.28;;
44116;SDS011;29781;49.480;8.512;2022-07-30T10:28:26;8.05;;;3.75;;
44116;SDS011;29781;49.480;8.512;2022-07-30T10:30:53;6.00;;;3.80;;
44116;SDS011;29781;49.480;8.512;2022-07-30T10:33:21;6.72;;;3.67;;
44116;SDS011;29781;49.480;8.512;2022-07-30T10:35:48;6.07;;;3.28;;
44116;SDS011;29781;49.480;8.512;2022-07-30T10:38:14;6.03;;;3.00;;
44116;SDS011;29781;49.480;8.512;2022-07-30T10:40:47;5.30;;;2.85;;
44116;SDS011;29781;49.480;8.512;2022-07-30T10:48:45;4.75;;;3.50;;
44116;SDS011;29781;49.480;8.512;2022-07-30T10:51:12;3.95;;;3.00;;
44116;SDS011;29781;49.480;8.512;2022-07-30T10:53:39;7.38;;;3.22;;
44116;SDS011;29781;49.480;8.512;2022-07-30T10:56:13;4.20;;;3.08;;
44116;SDS011;29781;49.480;8.512;2022-07-30T11:04:24;6.80;;;2.63;;
44116;SDS011;29781;49.480;8.512;2022-07-30T11:07:25;8.48;;;2.97;;
44116;SDS011;29781;49.480;8.512;2022-07-30T11:09:51;4.55;;;2.70;;
44116;SDS011;29781;49.480;8.512;2022-07-30T11:15:15;3.42;;;2.50;;
44116;SDS011;29781;49.480;8.512;2022-07-30T11:18:00;2.70;;;2.40;;
44116;SDS011;29781;49.480;8.512;2022-07-30T11:20:27;6.07;;;2.55;;
44116;SDS011;29781;49.480;8.512;2022-07-30T11:22:53;5.18;;;2.58;;
44116;SDS011;29781;49.480;8.512;2022-07-30T11:27:59;9.15;;;3.00;;
44116;SDS011;29781;49.480;8.512;2022-07-30T11:32:54;5.53;;;2.97;;
44116;SDS011;29781;49.480;8.512;2022-07-30T11:35:26;7.50;;;2.50;;
44116;SDS011;29781;49.480;8.512;2022-07-30T11:40:20;6.38;;;2.67;;
44116;SDS011;29781;49.480;8.512;2022-07-30T11:42:47;3.35;;;2.60;;
44116;SDS011;29781;49.480;8.512;2022-07-30T11:47:48;3.65;;;2.40;;
44116;SDS011;29781;49.480;8.512;2022-07-30T11:50:37;3.08;;;2.53;;
44116;SDS011;29781;49.480;8.512;2022-07-30T11:53:05;5.90;;;2.50;;
44116;SDS011;29781;49.480;8.512;2022-07-30T11:57:59;3.10;;;2.50;;
44116;SDS011;29781;49.480;8.512;2022-07-30T12:00:36;2.70;;;2.50;;
44116;SDS011;29781;49.480;8.512;2022-07-30T12:03:06;5.53;;;2.28;;
44116;SDS011;29781;49.480;8.512;2022-07-30T12:05:36;4.10;;;2.75;;
44116;SDS011;29781;49.480;8.512;2022-07-30T12:08:03;3.47;;;2.50;;
44116;SDS011;29781;49.480;8.512;2022-07-30T12:10:29;3.08;;;2.45;;
44116;SDS011;29781;49.480;8.512;2022-07-30T12:13:14;4.38;;;2.30;;
44116;SDS011;29781;49.480;8.512;2022-07-30T12:15:44;2.45;;;2.13;;
44116;SDS011;29781;49.480;8.512;2022-07-30T12:18:11;2.85;;;2.25;;
44116;SDS011;29781;49.480;8.512;2022-07-30T12:20:38;3.78;;;2.60;;
44116;SDS011;29781;49.480;8.512;2022-07-30T12:23:13;5.93;;;2.90;;
44116;SDS011;29781;49.480;8.512;2022-07-30T12:25:40;5.35;;;2.60;;
44116;SDS011;29781;49.480;8.512;2022-07-30T12:28:07;8.73;;;2.60;;
44116;SDS011;29781;49.480;8.512;2022-07-30T12:30:43;5.85;;;2.78;;
44116;SDS011;29781;49.480;8.512;2022-07-30T12:33:09;3.10;;;2.80;;
44116;SDS011;29781;49.480;8.512;2022-07-30T12:38:10;4.82;;;2.45;;
44116;SDS011;29781;49.480;8.512;2022-07-30T12:40:58;4.25;;;2.20;;
44116;SDS011;29781;49.480;8.512;2022-07-30T12:46:26;3.75;;;2.15;;
44116;SDS011;29781;49.480;8.512;2022-07-30T12:51:25;4.82;;;2.47;;
44116;SDS011;29781;49.480;8.512;2022-07-30T12:53:53;3.70;;;2.00;;
44116;SDS011;29781;49.480;8.512;2022-07-30T12:56:21;4.50;;;2.38;;
44116;SDS011;29781;49.480;8.512;2022-07-30T12:58:48;2.35;;;2.15;;
44116;SDS011;29781;49.480;8.512;2022-07-30T13:01:15;7.00;;;2.33;;
44116;SDS011;29781;49.480;8.512;2022-07-30T13:03:41;2.92;;;2.30;;
44116;SDS011;29781;49.480;8.512;2022-07-30T13:06:14;5.55;;;2.13;;
44116;SDS011;29781;49.480;8.512;2022-07-30T13:11:18;3.90;;;1.92;;
44116;SDS011;29781;49.480;8.512;2022-07-30T13:13:45;10.35;;;2.75;;
44116;SDS011;29781;49.480;8.512;2022-07-30T13:16:12;14.63;;;11.60;;
44116;SDS011;29781;49.480;8.512;2022-07-30T13:18:38;3.92;;;2.40;;
44116;SDS011;29781;49.480;8.512;2022-07-30T13:21:04;7.45;;;2.33;;
44116;SDS011;29781;49.480;8.512;2022-07-30T13:23:35;3.40;;;2.05;;
44116;SDS011;29781;49.480;8.512;2022-07-30T13:26:02;2.90;;;2.38;;
44116;SDS011;29781;49.480;8.512;2022-07-30T13:28:31;4.35;;;2.08;;
44116;SDS011;29781;49.480;8.512;2022-07-30T13:30:58;3.45;;;1.83;;
44116;SDS011;29781;49.480;8.512;2022-07-30T13:33:24;5.80;;;1.92;;
44116;SDS011;29781;49.480;8.512;2022-07-30T13:35:50;5.80;;;1.80;;
44116;SDS011;29781;49.480;8.512;2022-07-30T13:38:16;2.35;;;1.58;;
44116;SDS011;29781;49.480;8.512;2022-07-30T13:40:41;2.85;;;1.60;;
44116;SDS011;29781;49.480;8.512;2022-07-30T13:43:07;2.17;;;1.95;;
44116;SDS011;29781;49.480;8.512;2022-07-30T13:45:33;4.70;;;1.70;;
44116;SDS011;29781;49.480;8.512;2022-07-30T13:47:59;4.28;;;1.95;;
44116;SDS011;29781;49.480;8.512;2022-07-30T13:50:25;3.75;;;2.10;;
44116;SDS011;29781;49.480;8.512;2022-07-30T13:52:51;2.92;;;1.85;;
44116;SDS011;29781;49.480;8.512;2022-07-30T13:55:17;7.03;;;2.45;;
44116;SDS011;29781;49.480;8.512;2022-07-30T13:57:42;5.28;;;2.00;;
44116;SDS011;29781;49.480;8.512;2022-07-30T14:00:09;5.93;;;2.42;;
44116;SDS011;29781;49.480;8.512;2022-07-30T14:02:35;3.03;;;2.28;;
44116;SDS011;29781;49.480;8.512;2022-07-30T14:05:01;4.55;;;2.03;;
44116;SDS011;29781;49.480;8.512;2022-07-30T14:07:31;5.60;;;2.00;;
44116;SDS011;29781;49.480;8.512;2022-07-30T14:10:00;3.70;;;1.85;;
44116;SDS011;29781;49.480;8.512;2022-07-30T14:12:28;4.63;;;1.80;;
44116;SDS011;29781;49.480;8.512;2022-07-30T14:14:53;1.70;;;1.60;;
44116;SDS011;29781;49.480;8.512;2022-07-30T14:17:19;1.92;;;1.73;;
44116;SDS011;29781;49.480;8.512;2022-07-30T14:19:45;1.63;;;1.40;;
44116;SDS011;29781;49.480;8.512;2022-07-30T14:22:11;4.63;;;1.45;;
44116;SDS011;29781;49.480;8.512;2022-07-30T14:24:37;5.53;;;1.70;;
44116;SDS011;29781;49.480;8.512;2022-07-30T14:27:02;9.20;;;1.70;;
44116;SDS011;29781;49.480;8.512;2022-07-30T14:29:28;1.95;;;1.48;;
44116;SDS011;29781;49.480;8.512;2022-07-30T14:31:54;3.85;;;1.70;;
44116;SDS011;29781;49.480;8.512;2022-07-30T14:34:20;2.45;;;1.10;;
44116;SDS011;29781;49.480;8.512;2022-07-30T14:36:46;2.83;;;1.50;;
44116;SDS011;29781;49.480;8.512;2022-07-30T14:39:12;8.48;;;1.50;;
44116;SDS011;29781;49.480;8.512;2022-07-30T14:41:38;3.83;;;1.50;;
44116;SDS011;29781;49.480;8.512;2022-07-30T14:44:04;2.65;;;1.38;;
44116;SDS011;29781;49.480;8.512;2022-07-30T14:46:30;5.38;;;1.60;;
44116;SDS011;29781;49.480;8.512;2022-07-30T14:48:56;2.90;;;1.25;;
44116;SDS011;29781;49.480;8.512;2022-07-30T14:51:22;4.00;;;1.30;;
44116;SDS011;29781;49.480;8.512;2022-07-30T14:53:47;2.17;;;1.30;;
44116;SDS011;29781;49.480;8.512;2022-07-30T14:56:16;1.40;;;1.30;;
44116;SDS011;29781;49.480;8.512;2022-07-30T14:58:43;3.05;;;1.42;;
44116;SDS011;29781;49.480;8.512;2022-07-30T15:01:09;5.00;;;1.42;;
44116;SDS011;29781;49.480;8.512;2022-07-30T15:03:35;2.72;;;1.10;;
44116;SDS011;29781;49.480;8.512;2022-07-30T15:06:01;1.33;;;1.20;;
44116;SDS011;29781;49.480;8.512;2022-07-30T15:08:27;2.53;;;0.90;;
44116;SDS011;29781;49.480;8.512;2022-07-30T15:10:53;2.03;;;1.10;;
44116;SDS011;29781;49.480;8.512;2022-07-30T15:13:20;1.25;;;0.95;;
44116;SDS011;29781;49.480;8.512;2022-07-30T15:15:46;1.65;;;0.98;;
44116;SDS011;29781;49.480;8.512;2022-07-30T15:18:11;1.20;;;1.02;;
44116;SDS011;29781;49.480;8.512;2022-07-30T15:20:37;1.48;;;0.82;;
44116;SDS011;29781;49.480;8.512;2022-07-30T15:23:03;2.03;;;1.02;;
44116;SDS011;29781;49.480;8.512;2022-07-30T15:25:29;2.42;;;0.90;;
44116;SDS011;29781;49.480;8.512;2022-07-30T15:27:56;1.92;;;1.00;;
44116;SDS011;29781;49.480;8.512;2022-07-30T15:30:22;5.35;;;0.93;;
44116;SDS011;29781;49.480;8.512;2022-07-30T15:32:48;1.13;;;1.08;;
44116;SDS011;29781;49.480;8.512;2022-07-30T15:35:15;1.10;;;1.00;;
44116;SDS011;29781;49.480;8.512;2022-07-30T15:37:41;1.20;;;1.10;;